Shipu, China
Current Conditions -  °F | °C
As of 2:00 PM on Friday 28 Nov 2014 (Local Time) from ZSNB Reporting Station
Haze Haze  
Wind Chill: 16°   Ceiling: 2600
Heat Index: 16°   Visibility: 2.5mi
Dew Point: 12°   Wind: 13mph
Humidity: 77%   Direction: 350°N
Pressure: 30.03"   Gusts: NA
Location:  29.2°N, 121.95°E
Report Text: ZSNB 280600Z 35006MPS 4000 BR BKN026 16/12 Q1017 NOSIG
Loading
Personal Weather Stations






























Interactive Weather Map New forecast layout! Learn more

10-Day Weather Forecast

Advertisements
Track Severe Weather on mobile